sensor_id;sensor_type;location;lat;lon;timestamp;P1;durP1;ratioP1;P2;durP2;ratioP2
43086;SDS011;28708;52.224;6.924;2023-06-14T00:00:18;7.03;;;2.47;;
43086;SDS011;28708;52.224;6.924;2023-06-14T00:02:45;9.33;;;2.33;;
43086;SDS011;28708;52.224;6.924;2023-06-14T00:05:10;6.87;;;2.33;;
43086;SDS011;28708;52.224;6.924;2023-06-14T00:07:41;7.23;;;2.20;;
43086;SDS011;28708;52.224;6.924;2023-06-14T00:10:13;8.57;;;2.30;;
43086;SDS011;28708;52.224;6.924;2023-06-14T00:12:39;8.27;;;2.50;;
43086;SDS011;28708;52.224;6.924;2023-06-14T00:15:06;5.37;;;2.40;;
43086;SDS011;28708;52.224;6.924;2023-06-14T00:17:32;8.17;;;2.30;;
43086;SDS011;28708;52.224;6.924;2023-06-14T00:19:59;4.33;;;1.87;;
43086;SDS011;28708;52.224;6.924;2023-06-14T00:22:25;6.63;;;2.27;;
43086;SDS011;28708;52.224;6.924;2023-06-14T00:24:51;8.63;;;2.00;;
43086;SDS011;28708;52.224;6.924;2023-06-14T00:27:17;3.57;;;2.07;;
43086;SDS011;28708;52.224;6.924;2023-06-14T00:29:43;6.53;;;2.07;;
43086;SDS011;28708;52.224;6.924;2023-06-14T00:32:08;8.07;;;2.00;;
43086;SDS011;28708;52.224;6.924;2023-06-14T00:34:34;7.70;;;2.10;;
43086;SDS011;28708;52.224;6.924;2023-06-14T00:37:00;8.13;;;2.10;;
43086;SDS011;28708;52.224;6.924;2023-06-14T00:39:26;5.00;;;2.07;;
43086;SDS011;28708;52.224;6.924;2023-06-14T00:41:52;8.30;;;2.37;;
43086;SDS011;28708;52.224;6.924;2023-06-14T00:44:19;8.23;;;2.10;;
43086;SDS011;28708;52.224;6.924;2023-06-14T00:46:45;4.30;;;2.00;;
43086;SDS011;28708;52.224;6.924;2023-06-14T00:49:11;5.37;;;1.93;;
43086;SDS011;28708;52.224;6.924;2023-06-14T00:51:40;3.95;;;2.20;;
43086;SDS011;28708;52.224;6.924;2023-06-14T00:54:09;6.72;;;2.13;;
43086;SDS011;28708;52.224;6.924;2023-06-14T00:56:36;5.83;;;2.20;;
43086;SDS011;28708;52.224;6.924;2023-06-14T00:59:02;8.73;;;2.37;;
43086;SDS011;28708;52.224;6.924;2023-06-14T01:01:31;4.68;;;1.80;;
43086;SDS011;28708;52.224;6.924;2023-06-14T01:03:59;9.00;;;2.20;;
43086;SDS011;28708;52.224;6.924;2023-06-14T01:11:52;6.40;;;2.00;;
43086;SDS011;28708;52.224;6.924;2023-06-14T01:14:24;5.60;;;2.03;;
43086;SDS011;28708;52.224;6.924;2023-06-14T01:16:52;13.07;;;2.70;;
43086;SDS011;28708;52.224;6.924;2023-06-14T01:19:20;4.37;;;2.03;;
43086;SDS011;28708;52.224;6.924;2023-06-14T01:21:47;6.40;;;2.13;;
43086;SDS011;28708;52.224;6.924;2023-06-14T01:24:16;7.60;;;2.27;;
43086;SDS011;28708;52.224;6.924;2023-06-14T01:26:44;7.47;;;2.30;;
43086;SDS011;28708;52.224;6.924;2023-06-14T01:29:12;6.50;;;2.40;;
43086;SDS011;28708;52.224;6.924;2023-06-14T01:31:44;6.10;;;2.13;;
43086;SDS011;28708;52.224;6.924;2023-06-14T01:34:10;5.40;;;2.40;;
43086;SDS011;28708;52.224;6.924;2023-06-14T01:36:36;8.70;;;2.50;;
43086;SDS011;28708;52.224;6.924;2023-06-14T01:39:05;7.78;;;1.92;;
43086;SDS011;28708;52.224;6.924;2023-06-14T01:41:32;6.10;;;2.13;;
43086;SDS011;28708;52.224;6.924;2023-06-14T01:43:59;6.70;;;2.53;;
43086;SDS011;28708;52.224;6.924;2023-06-14T01:46:26;3.50;;;1.67;;
43086;SDS011;28708;52.224;6.924;2023-06-14T01:48:53;7.93;;;2.10;;
43086;SDS011;28708;52.224;6.924;2023-06-14T01:51:19;8.93;;;2.33;;
43086;SDS011;28708;52.224;6.924;2023-06-14T01:53:45;5.83;;;2.30;;
43086;SDS011;28708;52.224;6.924;2023-06-14T01:56:11;6.27;;;2.27;;
43086;SDS011;28708;52.224;6.924;2023-06-14T01:58:37;5.10;;;2.00;;
43086;SDS011;28708;52.224;6.924;2023-06-14T02:01:04;7.00;;;2.20;;
43086;SDS011;28708;52.224;6.924;2023-06-14T02:03:30;6.20;;;2.10;;
43086;SDS011;28708;52.224;6.924;2023-06-14T02:05:55;7.23;;;2.00;;
43086;SDS011;28708;52.224;6.924;2023-06-14T02:08:21;5.87;;;2.33;;
43086;SDS011;28708;52.224;6.924;2023-06-14T02:10:48;5.60;;;2.30;;
43086;SDS011;28708;52.224;6.924;2023-06-14T02:13:13;6.00;;;1.93;;
43086;SDS011;28708;52.224;6.924;2023-06-14T02:15:39;9.03;;;2.27;;
43086;SDS011;28708;52.224;6.924;2023-06-14T02:18:08;5.53;;;2.07;;
43086;SDS011;28708;52.224;6.924;2023-06-14T02:20:35;4.67;;;2.03;;
43086;SDS011;28708;52.224;6.924;2023-06-14T02:23:01;5.37;;;2.10;;
43086;SDS011;28708;52.224;6.924;2023-06-14T02:25:30;6.20;;;2.45;;
43086;SDS011;28708;52.224;6.924;2023-06-14T02:27:55;5.80;;;2.00;;
43086;SDS011;28708;52.224;6.924;2023-06-14T02:30:21;5.07;;;2.10;;
43086;SDS011;28708;52.224;6.924;2023-06-14T02:32:47;6.77;;;2.07;;
43086;SDS011;28708;52.224;6.924;2023-06-14T02:35:13;6.80;;;2.10;;
43086;SDS011;28708;52.224;6.924;2023-06-14T02:37:39;4.60;;;1.90;;
43086;SDS011;28708;52.224;6.924;2023-06-14T02:40:06;6.37;;;2.10;;
43086;SDS011;28708;52.224;6.924;2023-06-14T02:42:34;5.70;;;2.33;;
43086;SDS011;28708;52.224;6.924;2023-06-14T02:44:59;3.20;;;1.80;;
43086;SDS011;28708;52.224;6.924;2023-06-14T02:47:27;4.40;;;2.20;;
43086;SDS011;28708;52.224;6.924;2023-06-14T02:49:52;3.80;;;2.13;;
43086;SDS011;28708;52.224;6.924;2023-06-14T02:52:19;8.40;;;2.07;;
43086;SDS011;28708;52.224;6.924;2023-06-14T02:54:45;6.40;;;2.10;;
43086;SDS011;28708;52.224;6.924;2023-06-14T02:57:12;7.30;;;2.17;;
43086;SDS011;28708;52.224;6.924;2023-06-14T02:59:40;5.90;;;2.10;;
43086;SDS011;28708;52.224;6.924;2023-06-14T03:02:06;13.43;;;2.43;;
43086;SDS011;28708;52.224;6.924;2023-06-14T03:04:32;2.70;;;1.90;;
43086;SDS011;28708;52.224;6.924;2023-06-14T03:07:02;8.98;;;2.00;;
43086;SDS011;28708;52.224;6.924;2023-06-14T03:09:36;8.30;;;2.23;;
43086;SDS011;28708;52.224;6.924;2023-06-14T03:12:03;4.50;;;1.70;;
43086;SDS011;28708;52.224;6.924;2023-06-14T03:14:29;3.53;;;2.10;;
43086;SDS011;28708;52.224;6.924;2023-06-14T03:16:56;4.30;;;1.87;;
43086;SDS011;28708;52.224;6.924;2023-06-14T03:19:23;4.57;;;2.30;;
43086;SDS011;28708;52.224;6.924;2023-06-14T03:21:48;5.27;;;2.13;;
43086;SDS011;28708;52.224;6.924;2023-06-14T03:24:15;3.77;;;2.10;;
43086;SDS011;28708;52.224;6.924;2023-06-14T03:26:44;6.10;;;2.33;;
43086;SDS011;28708;52.224;6.924;2023-06-14T03:29:10;8.87;;;2.53;;
43086;SDS011;28708;52.224;6.924;2023-06-14T03:31:41;7.90;;;1.87;;
43086;SDS011;28708;52.224;6.924;2023-06-14T03:34:21;4.27;;;2.00;;
43086;SDS011;28708;52.224;6.924;2023-06-14T03:36:46;4.97;;;2.20;;
43086;SDS011;28708;52.224;6.924;2023-06-14T03:39:12;5.60;;;1.73;;
43086;SDS011;28708;52.224;6.924;2023-06-14T03:41:38;7.00;;;3.20;;
43086;SDS011;28708;52.224;6.924;2023-06-14T03:44:04;10.17;;;2.60;;
43086;SDS011;28708;52.224;6.924;2023-06-14T03:46:29;5.90;;;2.23;;
43086;SDS011;28708;52.224;6.924;2023-06-14T03:48:55;6.60;;;2.80;;
43086;SDS011;28708;52.224;6.924;2023-06-14T03:51:22;7.33;;;2.50;;
43086;SDS011;28708;52.224;6.924;2023-06-14T03:53:48;3.57;;;2.17;;
43086;SDS011;28708;52.224;6.924;2023-06-14T03:56:14;9.70;;;2.33;;
43086;SDS011;28708;52.224;6.924;2023-06-14T03:58:42;7.20;;;2.57;;
43086;SDS011;28708;52.224;6.924;2023-06-14T04:01:07;3.37;;;2.13;;
43086;SDS011;28708;52.224;6.924;2023-06-14T04:03:33;4.63;;;2.00;;
43086;SDS011;28708;52.224;6.924;2023-06-14T04:06:00;6.73;;;2.50;;
43086;SDS011;28708;52.224;6.924;2023-06-14T04:08:26;5.47;;;2.30;;
43086;SDS011;28708;52.224;6.924;2023-06-14T04:10:52;5.03;;;2.07;;
43086;SDS011;28708;52.224;6.924;2023-06-14T04:13:17;6.27;;;2.20;;
43086;SDS011;28708;52.224;6.924;2023-06-14T04:15:43;6.13;;;2.23;;
43086;SDS011;28708;52.224;6.924;2023-06-14T04:18:13;8.00;;;2.40;;
43086;SDS011;28708;52.224;6.924;2023-06-14T04:20:39;8.63;;;2.60;;
43086;SDS011;28708;52.224;6.924;2023-06-14T04:23:14;4.87;;;2.30;;
43086;SDS011;28708;52.224;6.924;2023-06-14T04:25:47;5.03;;;2.70;;
43086;SDS011;28708;52.224;6.924;2023-06-14T04:28:15;6.97;;;2.70;;
43086;SDS011;28708;52.224;6.924;2023-06-14T04:30:43;8.40;;;2.40;;
43086;SDS011;28708;52.224;6.924;2023-06-14T04:33:15;6.30;;;2.40;;
43086;SDS011;28708;52.224;6.924;2023-06-14T04:35:41;6.13;;;2.50;;
43086;SDS011;28708;52.224;6.924;2023-06-14T04:38:08;6.17;;;2.30;;
43086;SDS011;28708;52.224;6.924;2023-06-14T04:40:37;5.95;;;2.47;;
43086;SDS011;28708;52.224;6.924;2023-06-14T04:43:09;5.77;;;2.33;;
43086;SDS011;28708;52.224;6.924;2023-06-14T04:45:37;7.30;;;2.57;;
43086;SDS011;28708;52.224;6.924;2023-06-14T04:48:05;7.50;;;2.50;;
43086;SDS011;28708;52.224;6.924;2023-06-14T04:50:31;3.67;;;2.40;;
43086;SDS011;28708;52.224;6.924;2023-06-14T04:52:58;6.37;;;2.70;;
43086;SDS011;28708;52.224;6.924;2023-06-14T04:55:25;8.10;;;2.40;;
43086;SDS011;28708;52.224;6.924;2023-06-14T04:57:51;5.70;;;2.33;;
43086;SDS011;28708;52.224;6.924;2023-06-14T05:00:20;6.43;;;2.67;;
43086;SDS011;28708;52.224;6.924;2023-06-14T05:02:46;4.60;;;2.40;;
43086;SDS011;28708;52.224;6.924;2023-06-14T05:05:14;5.13;;;2.30;;
43086;SDS011;28708;52.224;6.924;2023-06-14T05:07:42;8.63;;;2.23;;
43086;SDS011;28708;52.224;6.924;2023-06-14T05:10:08;9.50;;;2.40;;
43086;SDS011;28708;52.224;6.924;2023-06-14T05:12:34;3.77;;;2.27;;
43086;SDS011;28708;52.224;6.924;2023-06-14T05:15:00;4.43;;;2.33;;
43086;SDS011;28708;52.224;6.924;2023-06-14T05:17:26;5.67;;;2.40;;
43086;SDS011;28708;52.224;6.924;2023-06-14T05:19:53;5.43;;;2.37;;
43086;SDS011;28708;52.224;6.924;2023-06-14T05:22:20;3.60;;;2.40;;
43086;SDS011;28708;52.224;6.924;2023-06-14T05:24:46;4.93;;;2.10;;
43086;SDS011;28708;52.224;6.924;2023-06-14T05:27:13;5.30;;;2.70;;
43086;SDS011;28708;52.224;6.924;2023-06-14T05:29:39;5.17;;;2.60;;
43086;SDS011;28708;52.224;6.924;2023-06-14T05:32:05;5.80;;;2.47;;
43086;SDS011;28708;52.224;6.924;2023-06-14T05:34:31;5.03;;;2.50;;
43086;SDS011;28708;52.224;6.924;2023-06-14T05:36:57;8.03;;;2.87;;
43086;SDS011;28708;52.224;6.924;2023-06-14T05:39:22;8.57;;;2.97;;
43086;SDS011;28708;52.224;6.924;2023-06-14T05:41:49;4.90;;;2.50;;
43086;SDS011;28708;52.224;6.924;2023-06-14T05:44:15;8.10;;;2.83;;
43086;SDS011;28708;52.224;6.924;2023-06-14T05:46:40;6.77;;;2.70;;
43086;SDS011;28708;52.224;6.924;2023-06-14T05:49:06;6.00;;;1.97;;
43086;SDS011;28708;52.224;6.924;2023-06-14T05:51:32;5.53;;;2.47;;
43086;SDS011;28708;52.224;6.924;2023-06-14T05:53:58;4.80;;;2.30;;
43086;SDS011;28708;52.224;6.924;2023-06-14T05:56:24;4.87;;;2.30;;
43086;SDS011;28708;52.224;6.924;2023-06-14T05:58:51;7.50;;;2.40;;
43086;SDS011;28708;52.224;6.924;2023-06-14T06:01:16;10.27;;;2.83;;
43086;SDS011;28708;52.224;6.924;2023-06-14T06:03:42;6.80;;;2.40;;
43086;SDS011;28708;52.224;6.924;2023-06-14T06:06:11;6.60;;;2.20;;
43086;SDS011;28708;52.224;6.924;2023-06-14T06:08:37;4.03;;;2.20;;
43086;SDS011;28708;52.224;6.924;2023-06-14T06:11:03;3.73;;;1.80;;
43086;SDS011;28708;52.224;6.924;2023-06-14T06:13:29;7.17;;;2.53;;
43086;SDS011;28708;52.224;6.924;2023-06-14T06:15:54;6.17;;;2.30;;
43086;SDS011;28708;52.224;6.924;2023-06-14T06:18:21;15.60;;;8.07;;
43086;SDS011;28708;52.224;6.924;2023-06-14T06:20:46;5.63;;;2.03;;
43086;SDS011;28708;52.224;6.924;2023-06-14T06:23:12;4.50;;;1.83;;
43086;SDS011;28708;52.224;6.924;2023-06-14T06:25:38;10.53;;;2.30;;
43086;SDS011;28708;52.224;6.924;2023-06-14T06:28:03;5.70;;;2.13;;
43086;SDS011;28708;52.224;6.924;2023-06-14T06:30:29;3.27;;;1.80;;
43086;SDS011;28708;52.224;6.924;2023-06-14T06:32:55;4.80;;;2.10;;
43086;SDS011;28708;52.224;6.924;2023-06-14T06:35:20;3.47;;;2.07;;
43086;SDS011;28708;52.224;6.924;2023-06-14T06:37:46;5.37;;;2.27;;
43086;SDS011;28708;52.224;6.924;2023-06-14T06:40:12;3.97;;;1.60;;
43086;SDS011;28708;52.224;6.924;2023-06-14T06:42:38;5.23;;;1.73;;
43086;SDS011;28708;52.224;6.924;2023-06-14T06:45:04;3.00;;;1.63;;
43086;SDS011;28708;52.224;6.924;2023-06-14T06:47:31;6.07;;;2.00;;
43086;SDS011;28708;52.224;6.924;2023-06-14T06:49:56;6.30;;;1.70;;
43086;SDS011;28708;52.224;6.924;2023-06-14T06:52:22;3.63;;;2.10;;
43086;SDS011;28708;52.224;6.924;2023-06-14T06:54:47;8.87;;;1.80;;
43086;SDS011;28708;52.224;6.924;2023-06-14T06:57:15;4.30;;;1.80;;
43086;SDS011;28708;52.224;6.924;2023-06-14T06:59:41;5.80;;;2.27;;
43086;SDS011;28708;52.224;6.924;2023-06-14T07:02:07;4.13;;;1.83;;
43086;SDS011;28708;52.224;6.924;2023-06-14T07:04:32;6.83;;;1.90;;
43086;SDS011;28708;52.224;6.924;2023-06-14T07:06:58;5.57;;;1.60;;
43086;SDS011;28708;52.224;6.924;2023-06-14T07:09:23;6.20;;;1.73;;
43086;SDS011;28708;52.224;6.924;2023-06-14T07:11:49;7.37;;;1.93;;
43086;SDS011;28708;52.224;6.924;2023-06-14T07:14:15;4.90;;;1.90;;
43086;SDS011;28708;52.224;6.924;2023-06-14T07:16:41;3.93;;;1.60;;
43086;SDS011;28708;52.224;6.924;2023-06-14T07:19:07;3.50;;;1.70;;
43086;SDS011;28708;52.224;6.924;2023-06-14T07:21:34;3.20;;;1.47;;
43086;SDS011;28708;52.224;6.924;2023-06-14T07:24:00;4.87;;;1.47;;
43086;SDS011;28708;52.224;6.924;2023-06-14T07:26:25;4.73;;;1.67;;
43086;SDS011;28708;52.224;6.924;2023-06-14T07:28:51;6.77;;;1.97;;
43086;SDS011;28708;52.224;6.924;2023-06-14T07:31:17;4.07;;;1.57;;
43086;SDS011;28708;52.224;6.924;2023-06-14T07:33:44;5.77;;;1.67;;
43086;SDS011;28708;52.224;6.924;2023-06-14T07:36:10;4.63;;;1.60;;
43086;SDS011;28708;52.224;6.924;2023-06-14T07:38:36;2.70;;;1.50;;
43086;SDS011;28708;52.224;6.924;2023-06-14T07:41:02;3.07;;;1.60;;
43086;SDS011;28708;52.224;6.924;2023-06-14T07:43:28;7.80;;;1.67;;
43086;SDS011;28708;52.224;6.924;2023-06-14T07:45:54;3.20;;;1.40;;
43086;SDS011;28708;52.224;6.924;2023-06-14T07:48:20;2.63;;;1.40;;
43086;SDS011;28708;52.224;6.924;2023-06-14T07:50:46;3.47;;;1.40;;
43086;SDS011;28708;52.224;6.924;2023-06-14T07:53:11;5.70;;;1.50;;
43086;SDS011;28708;52.224;6.924;2023-06-14T07:55:37;4.03;;;1.43;;
43086;SDS011;28708;52.224;6.924;2023-06-14T07:58:03;4.97;;;1.70;;
43086;SDS011;28708;52.224;6.924;2023-06-14T08:00:29;5.33;;;1.40;;
43086;SDS011;28708;52.224;6.924;2023-06-14T08:02:55;7.00;;;1.43;;
43086;SDS011;28708;52.224;6.924;2023-06-14T08:05:24;4.27;;;1.20;;
43086;SDS011;28708;52.224;6.924;2023-06-14T08:07:53;3.03;;;1.55;;
43086;SDS011;28708;52.224;6.924;2023-06-14T08:10:20;4.25;;;1.65;;
43086;SDS011;28708;52.224;6.924;2023-06-14T08:12:47;7.88;;;1.83;;
43086;SDS011;28708;52.224;6.924;2023-06-14T08:15:15;8.55;;;1.83;;
43086;SDS011;28708;52.224;6.924;2023-06-14T08:17:44;7.88;;;1.33;;
43086;SDS011;28708;52.224;6.924;2023-06-14T08:20:10;1.98;;;1.20;;
43086;SDS011;28708;52.224;6.924;2023-06-14T08:22:36;2.97;;;1.15;;
43086;SDS011;28708;52.224;6.924;2023-06-14T08:25:02;5.80;;;1.75;;
43086;SDS011;28708;52.224;6.924;2023-06-14T08:27:29;2.90;;;1.30;;
43086;SDS011;28708;52.224;6.924;2023-06-14T08:29:55;4.45;;;1.05;;
43086;SDS011;28708;52.224;6.924;2023-06-14T08:32:21;2.60;;;1.02;;
43086;SDS011;28708;52.224;6.924;2023-06-14T08:34:47;5.82;;;1.30;;
43086;SDS011;28708;52.224;6.924;2023-06-14T08:37:12;4.82;;;1.20;;
43086;SDS011;28708;52.224;6.924;2023-06-14T08:39:38;3.65;;;1.17;;
43086;SDS011;28708;52.224;6.924;2023-06-14T08:42:04;3.95;;;1.15;;
43086;SDS011;28708;52.224;6.924;2023-06-14T08:44:33;2.92;;;1.02;;
43086;SDS011;28708;52.224;6.924;2023-06-14T08:47:01;4.32;;;1.25;;
43086;SDS011;28708;52.224;6.924;2023-06-14T08:49:28;2.80;;;1.15;;
43086;SDS011;28708;52.224;6.924;2023-06-14T08:51:59;3.50;;;1.23;;
43086;SDS011;28708;52.224;6.924;2023-06-14T08:54:29;4.20;;;0.98;;
43086;SDS011;28708;52.224;6.924;2023-06-14T08:56:58;3.60;;;1.08;;
43086;SDS011;28708;52.224;6.924;2023-06-14T08:59:25;2.72;;;1.20;;
43086;SDS011;28708;52.224;6.924;2023-06-14T09:01:52;2.92;;;1.08;;
43086;SDS011;28708;52.224;6.924;2023-06-14T09:04:19;2.95;;;1.30;;
43086;SDS011;28708;52.224;6.924;2023-06-14T09:06:50;4.22;;;1.30;;
43086;SDS011;28708;52.224;6.924;2023-06-14T09:09:19;2.80;;;1.27;;
43086;SDS011;28708;52.224;6.924;2023-06-14T09:11:49;2.95;;;1.20;;
43086;SDS011;28708;52.224;6.924;2023-06-14T09:14:15;3.13;;;1.42;;
43086;SDS011;28708;52.224;6.924;2023-06-14T09:16:42;3.40;;;1.17;;
43086;SDS011;28708;52.224;6.924;2023-06-14T09:19:08;4.57;;;1.25;;
43086;SDS011;28708;52.224;6.924;2023-06-14T09:21:38;2.10;;;1.38;;
43086;SDS011;28708;52.224;6.924;2023-06-14T09:24:05;4.10;;;1.40;;
43086;SDS011;28708;52.224;6.924;2023-06-14T09:26:38;9.00;;;1.55;;
43086;SDS011;28708;52.224;6.924;2023-06-14T09:29:05;2.47;;;1.38;;
43086;SDS011;28708;52.224;6.924;2023-06-14T09:31:31;4.95;;;1.23;;
43086;SDS011;28708;52.224;6.924;2023-06-14T09:33:57;2.88;;;1.30;;
43086;SDS011;28708;52.224;6.924;2023-06-14T09:36:26;8.10;;;1.58;;
43086;SDS011;28708;52.224;6.924;2023-06-14T09:38:53;4.43;;;1.48;;
43086;SDS011;28708;52.224;6.924;2023-06-14T09:41:19;7.50;;;1.70;;
43086;SDS011;28708;52.224;6.924;2023-06-14T09:43:46;6.18;;;1.80;;
43086;SDS011;28708;52.224;6.924;2023-06-14T09:46:14;2.63;;;1.55;;
43086;SDS011;28708;52.224;6.924;2023-06-14T09:48:41;4.43;;;1.40;;
43086;SDS011;28708;52.224;6.924;2023-06-14T09:51:09;5.00;;;1.50;;
43086;SDS011;28708;52.224;6.924;2023-06-14T09:53:39;4.47;;;1.75;;
43086;SDS011;28708;52.224;6.924;2023-06-14T09:56:07;3.05;;;1.52;;
43086;SDS011;28708;52.224;6.924;2023-06-14T09:58:33;3.78;;;1.25;;
43086;SDS011;28708;52.224;6.924;2023-06-14T10:01:02;2.00;;;1.10;;
43086;SDS011;28708;52.224;6.924;2023-06-14T10:03:28;3.38;;;1.38;;
43086;SDS011;28708;52.224;6.924;2023-06-14T10:05:55;3.13;;;1.40;;
43086;SDS011;28708;52.224;6.924;2023-06-14T10:08:27;3.80;;;1.10;;
43086;SDS011;28708;52.224;6.924;2023-06-14T10:10:56;3.05;;;1.20;;
43086;SDS011;28708;52.224;6.924;2023-06-14T10:13:22;4.55;;;1.42;;
43086;SDS011;28708;52.224;6.924;2023-06-14T10:16:04;3.38;;;1.30;;
43086;SDS011;28708;52.224;6.924;2023-06-14T10:18:58;2.88;;;1.17;;
43086;SDS011;28708;52.224;6.924;2023-06-14T10:21:51;3.70;;;1.27;;
43086;SDS011;28708;52.224;6.924;2023-06-14T10:24:48;3.28;;;1.23;;
43086;SDS011;28708;52.224;6.924;2023-06-14T10:27:15;2.65;;;0.90;;
43086;SDS011;28708;52.224;6.924;2023-06-14T10:32:26;0.80;;;0.65;;
43086;SDS011;28708;52.224;6.924;2023-06-14T10:34:53;5.32;;;1.00;;
43086;SDS011;28708;52.224;6.924;2023-06-14T10:37:21;7.83;;;1.00;;
43086;SDS011;28708;52.224;6.924;2023-06-14T10:39:47;5.55;;;1.00;;
43086;SDS011;28708;52.224;6.924;2023-06-14T10:42:13;2.15;;;0.80;;
43086;SDS011;28708;52.224;6.924;2023-06-14T10:44:40;7.50;;;1.10;;
43086;SDS011;28708;52.224;6.924;2023-06-14T10:47:20;9.48;;;1.10;;
43086;SDS011;28708;52.224;6.924;2023-06-14T10:49:50;2.17;;;0.95;;
43086;SDS011;28708;52.224;6.924;2023-06-14T10:52:21;3.25;;;0.88;;
43086;SDS011;28708;52.224;6.924;2023-06-14T10:57:42;2.30;;;1.10;;
43086;SDS011;28708;52.224;6.924;2023-06-14T11:00:24;1.83;;;0.90;;
43086;SDS011;28708;52.224;6.924;2023-06-14T11:10:43;2.30;;;0.90;;
43086;SDS011;28708;52.224;6.924;2023-06-14T11:13:10;5.63;;;1.13;;
43086;SDS011;28708;52.224;6.924;2023-06-14T11:15:37;3.92;;;1.25;;
43086;SDS011;28708;52.224;6.924;2023-06-14T11:20:35;2.10;;;0.90;;
43086;SDS011;28708;52.224;6.924;2023-06-14T11:23:01;3.88;;;1.25;;
43086;SDS011;28708;52.224;6.924;2023-06-14T11:25:27;4.57;;;1.40;;
43086;SDS011;28708;52.224;6.924;2023-06-14T11:27:53;1.88;;;0.88;;
43086;SDS011;28708;52.224;6.924;2023-06-14T11:30:20;4.82;;;1.00;;
43086;SDS011;28708;52.224;6.924;2023-06-14T11:32:47;4.63;;;1.23;;
43086;SDS011;28708;52.224;6.924;2023-06-14T11:35:13;2.30;;;1.13;;
43086;SDS011;28708;52.224;6.924;2023-06-14T11:37:39;3.65;;;1.20;;
43086;SDS011;28708;52.224;6.924;2023-06-14T11:40:07;2.78;;;1.13;;
43086;SDS011;28708;52.224;6.924;2023-06-14T11:42:34;3.80;;;1.10;;
43086;SDS011;28708;52.224;6.924;2023-06-14T11:45:01;3.30;;;1.20;;
43086;SDS011;28708;52.224;6.924;2023-06-14T11:47:31;2.05;;;1.38;;
43086;SDS011;28708;52.224;6.924;2023-06-14T11:49:58;5.88;;;1.38;;
43086;SDS011;28708;52.224;6.924;2023-06-14T11:52:24;1.85;;;1.30;;
43086;SDS011;28708;52.224;6.924;2023-06-14T11:54:50;2.47;;;1.10;;
43086;SDS011;28708;52.224;6.924;2023-06-14T11:57:17;2.50;;;1.10;;
43086;SDS011;28708;52.224;6.924;2023-06-14T11:59:43;2.50;;;1.25;;
43086;SDS011;28708;52.224;6.924;2023-06-14T12:02:16;5.93;;;1.25;;
43086;SDS011;28708;52.224;6.924;2023-06-14T12:04:44;2.75;;;0.98;;
43086;SDS011;28708;52.224;6.924;2023-06-14T12:07:12;4.97;;;0.90;;
43086;SDS011;28708;52.224;6.924;2023-06-14T12:12:23;2.45;;;1.00;;
43086;SDS011;28708;52.224;6.924;2023-06-14T12:14:54;1.50;;;1.10;;
43086;SDS011;28708;52.224;6.924;2023-06-14T12:17:21;1.30;;;0.98;;
43086;SDS011;28708;52.224;6.924;2023-06-14T12:19:48;1.88;;;1.15;;
43086;SDS011;28708;52.224;6.924;2023-06-14T12:22:15;2.80;;;1.15;;
43086;SDS011;28708;52.224;6.924;2023-06-14T12:24:45;4.15;;;1.02;;
43086;SDS011;28708;52.224;6.924;2023-06-14T12:27:11;2.78;;;1.00;;
43086;SDS011;28708;52.224;6.924;2023-06-14T12:29:44;4.90;;;1.10;;
43086;SDS011;28708;52.224;6.924;2023-06-14T12:32:10;3.70;;;0.90;;
43086;SDS011;28708;52.224;6.924;2023-06-14T12:34:36;3.90;;;1.40;;
43086;SDS011;28708;52.224;6.924;2023-06-14T12:37:02;4.80;;;1.10;;
43086;SDS011;28708;52.224;6.924;2023-06-14T12:39:29;3.97;;;1.00;;
43086;SDS011;28708;52.224;6.924;2023-06-14T12:41:56;1.60;;;1.10;;
43086;SDS011;28708;52.224;6.924;2023-06-14T12:44:22;5.47;;;1.10;;
43086;SDS011;28708;52.224;6.924;2023-06-14T12:46:48;3.75;;;1.00;;
43086;SDS011;28708;52.224;6.924;2023-06-14T12:49:16;2.78;;;1.10;;
43086;SDS011;28708;52.224;6.924;2023-06-14T12:51:42;3.85;;;0.93;;
43086;SDS011;28708;52.224;6.924;2023-06-14T12:54:08;3.60;;;1.52;;
43086;SDS011;28708;52.224;6.924;2023-06-14T12:56:34;8.60;;;1.13;;
43086;SDS011;28708;52.224;6.924;2023-06-14T12:58:59;3.53;;;0.90;;
43086;SDS011;28708;52.224;6.924;2023-06-14T13:01:25;3.85;;;0.90;;
43086;SDS011;28708;52.224;6.924;2023-06-14T13:03:51;4.00;;;0.85;;
43086;SDS011;28708;52.224;6.924;2023-06-14T13:06:20;3.58;;;1.10;;
43086;SDS011;28708;52.224;6.924;2023-06-14T13:08:50;1.55;;;0.90;;
43086;SDS011;28708;52.224;6.924;2023-06-14T13:11:15;3.35;;;0.90;;
43086;SDS011;28708;52.224;6.924;2023-06-14T13:13:41;4.38;;;0.90;;
43086;SDS011;28708;52.224;6.924;2023-06-14T13:16:07;4.85;;;1.00;;
43086;SDS011;28708;52.224;6.924;2023-06-14T13:18:33;4.57;;;1.10;;
43086;SDS011;28708;52.224;6.924;2023-06-14T13:20:58;3.83;;;1.40;;
43086;SDS011;28708;52.224;6.924;2023-06-14T13:23:24;1.60;;;0.93;;
43086;SDS011;28708;52.224;6.924;2023-06-14T13:25:50;3.55;;;1.40;;
43086;SDS011;28708;52.224;6.924;2023-06-14T13:28:16;2.67;;;1.40;;
43086;SDS011;28708;52.224;6.924;2023-06-14T13:30:42;2.15;;;1.02;;
43086;SDS011;28708;52.224;6.924;2023-06-14T13:33:07;3.90;;;1.40;;
43086;SDS011;28708;52.224;6.924;2023-06-14T13:35:33;4.03;;;0.85;;
43086;SDS011;28708;52.224;6.924;2023-06-14T13:37:59;5.55;;;1.13;;
43086;SDS011;28708;52.224;6.924;2023-06-14T13:40:25;2.72;;;1.15;;
43086;SDS011;28708;52.224;6.924;2023-06-14T13:42:51;7.13;;;1.05;;
43086;SDS011;28708;52.224;6.924;2023-06-14T13:45:17;1.33;;;0.90;;
43086;SDS011;28708;52.224;6.924;2023-06-14T13:47:42;1.95;;;0.80;;
43086;SDS011;28708;52.224;6.924;2023-06-14T13:50:08;4.22;;;1.13;;
43086;SDS011;28708;52.224;6.924;2023-06-14T13:52:34;5.32;;;1.30;;
43086;SDS011;28708;52.224;6.924;2023-06-14T13:55:00;5.40;;;1.17;;
43086;SDS011;28708;52.224;6.924;2023-06-14T13:57:26;4.72;;;1.17;;
43086;SDS011;28708;52.224;6.924;2023-06-14T13:59:51;1.33;;;0.90;;
43086;SDS011;28708;52.224;6.924;2023-06-14T14:02:20;2.08;;;1.10;;
43086;SDS011;28708;52.224;6.924;2023-06-14T14:04:46;2.05;;;0.70;;
43086;SDS011;28708;52.224;6.924;2023-06-14T14:07:17;2.22;;;1.10;;
43086;SDS011;28708;52.224;6.924;2023-06-14T14:09:44;3.03;;;1.20;;
43086;SDS011;28708;52.224;6.924;2023-06-14T14:12:10;2.30;;;1.00;;
43086;SDS011;28708;52.224;6.924;2023-06-14T14:14:36;1.10;;;0.70;;
43086;SDS011;28708;52.224;6.924;2023-06-14T14:17:02;3.17;;;1.00;;
43086;SDS011;28708;52.224;6.924;2023-06-14T14:19:27;1.20;;;0.80;;
43086;SDS011;28708;52.224;6.924;2023-06-14T14:21:53;2.30;;;1.00;;
43086;SDS011;28708;52.224;6.924;2023-06-14T14:24:19;1.88;;;1.10;;
43086;SDS011;28708;52.224;6.924;2023-06-14T14:26:44;2.50;;;1.02;;
43086;SDS011;28708;52.224;6.924;2023-06-14T14:29:13;1.38;;;0.88;;
43086;SDS011;28708;52.224;6.924;2023-06-14T14:31:39;3.00;;;1.10;;
43086;SDS011;28708;52.224;6.924;2023-06-14T14:34:05;3.38;;;0.98;;
43086;SDS011;28708;52.224;6.924;2023-06-14T14:36:30;3.92;;;0.80;;
43086;SDS011;28708;52.224;6.924;2023-06-14T14:38:58;2.25;;;1.02;;
43086;SDS011;28708;52.224;6.924;2023-06-14T14:41:24;3.65;;;1.10;;
43086;SDS011;28708;52.224;6.924;2023-06-14T14:43:49;2.15;;;1.10;;
43086;SDS011;28708;52.224;6.924;2023-06-14T14:46:15;4.30;;;1.00;;
43086;SDS011;28708;52.224;6.924;2023-06-14T14:48:42;1.27;;;0.80;;
43086;SDS011;28708;52.224;6.924;2023-06-14T14:51:07;2.72;;;1.10;;
43086;SDS011;28708;52.224;6.924;2023-06-14T14:53:33;2.03;;;0.90;;
43086;SDS011;28708;52.224;6.924;2023-06-14T14:55:59;4.80;;;1.10;;
43086;SDS011;28708;52.224;6.924;2023-06-14T14:58:25;3.83;;;1.00;;
43086;SDS011;28708;52.224;6.924;2023-06-14T15:00:50;3.95;;;1.20;;
43086;SDS011;28708;52.224;6.924;2023-06-14T15:03:16;3.45;;;1.05;;
43086;SDS011;28708;52.224;6.924;2023-06-14T15:05:42;4.70;;;1.55;;
43086;SDS011;28708;52.224;6.924;2023-06-14T15:08:07;5.53;;;3.10;;
43086;SDS011;28708;52.224;6.924;2023-06-14T15:10:37;5.72;;;1.60;;